Time;durP1;ratioP1;P1;durP2;ratioP2;P2;SDS_P1;SDS_P2;PMS_P1;PMS_P2;Temp;Humidity;BMP_temperature;BMP_pressure;BME280_temperature;BME280_humidity;BME280_pressure;Samples;Min_cycle;Max_cycle;Signal;HPM_P1;HPM_P2
2021/03/24 00:00:09;;;;;;;;;3.75;3.00;;;;;10.81;43.20;98990.72;4902915;28;102481;-84
2021/03/24 00:02:36;;;;;;;;;5.25;3.00;;;;;10.80;42.98;98982.81;4876582;28;102447;-84
2021/03/24 00:05:09;;;;;;;;;4.00;3.00;;;;;10.79;42.98;98981.97;4901734;28;102100;-83
2021/03/24 00:07:36;;;;;;;;;3.00;2.00;;;;;10.80;43.20;98985.53;4898008;28;104068;-84
2021/03/24 00:10:04;;;;;;;;;3.75;3.00;;;;;10.79;42.92;98978.44;4899815;28;102353;-83
2021/03/24 00:12:34;;;;;;;;;4.25;2.75;;;;;10.79;43.22;98979.28;4874875;28;102125;-83
2021/03/24 00:15:02;;;;;;;;;2.50;2.50;;;;;10.79;43.21;98989.25;4877209;28;102506;-84
2021/03/24 00:17:29;;;;;;;;;4.25;3.75;;;;;10.78;43.09;98984.88;4896100;28;104247;-83
2021/03/24 00:19:56;;;;;;;;;3.25;3.25;;;;;10.77;43.29;98975.91;4877225;28;102149;-84
2021/03/24 00:22:22;;;;;;;;;3.00;3.00;;;;;10.77;42.94;98975.91;4907847;28;102413;-83
2021/03/24 00:24:49;;;;;;;;;3.25;2.00;;;;;10.78;43.17;98983.00;4900467;28;102267;-83
2021/03/24 00:27:16;;;;;;;;;3.75;3.00;;;;;10.79;42.93;98978.44;4899738;28;104430;-84
2021/03/24 00:29:42;;;;;;;;;3.75;3.25;;;;;10.78;42.96;98983.00;4899149;28;102268;-84
2021/03/24 00:32:09;;;;;;;;;4.50;3.25;;;;;10.79;43.32;98981.13;4889116;28;102284;-84
2021/03/24 00:34:36;;;;;;;;;2.50;2.00;;;;;10.80;43.27;98980.09;4908261;28;102261;-84
2021/03/24 00:37:03;;;;;;;;;2.25;2.00;;;;;10.82;43.17;98988.84;4902337;28;103884;-84
2021/03/24 00:39:30;;;;;;;;;2.50;2.00;;;;;10.80;43.15;98980.94;4902171;28;102083;-84
2021/03/24 00:41:57;;;;;;;;;3.25;3.00;;;;;10.79;42.85;98984.69;4903492;28;102321;-84
2021/03/24 00:44:23;;;;;;;;;2.00;2.00;;;;;10.80;43.20;98980.94;4880789;28;102296;-84
2021/03/24 00:46:50;;;;;;;;;3.00;3.00;;;;;10.80;43.10;98977.41;4892439;28;104310;-84
2021/03/24 00:49:17;;;;;;;;;3.00;2.75;;;;;10.80;42.97;98980.09;4902273;28;102244;-84
2021/03/24 00:51:44;;;;;;;;;5.00;3.00;;;;;10.79;42.98;98973.03;4903693;28;102284;-84
2021/03/24 00:54:11;;;;;;;;;2.00;2.00;;;;;10.80;43.14;98983.66;4909883;28;102220;-84
2021/03/24 00:56:37;;;;;;;;;2.25;2.25;;;;;10.79;42.95;98979.28;4896498;28;105176;-84
2021/03/24 00:59:04;;;;;;;;;1.00;1.00;;;;;10.79;43.05;98973.84;4897970;28;102332;-84
2021/03/24 01:01:31;;;;;;;;;3.75;2.75;;;;;10.80;43.22;98974.69;4899514;28;102096;-84
2021/03/24 01:03:57;;;;;;;;;3.25;3.25;;;;;10.79;42.90;98973.84;4896679;28;102036;-84
2021/03/24 01:06:24;;;;;;;;;2.00;2.00;;;;;10.79;43.33;98978.44;4901411;28;104057;-84
2021/03/24 01:08:54;;;;;;;;;2.00;2.00;;;;;10.78;43.17;98977.59;4890747;28;102069;-83
2021/03/24 01:11:21;;;;;;;;;3.00;2.00;;;;;10.78;43.02;98983.00;4894844;28;102050;-84
2021/03/24 01:13:48;;;;;;;;;2.00;2.00;;;;;10.80;43.07;98974.69;4908584;28;102129;-84
2021/03/24 01:16:14;;;;;;;;;3.50;1.75;;;;;10.79;43.25;98973.84;4900540;28;104044;-83
2021/03/24 01:18:41;;;;;;;;;1.75;1.75;;;;;10.79;43.01;98983.84;4888370;28;102260;-84
2021/03/24 01:21:08;;;;;;;;;2.75;2.25;;;;;10.79;43.12;98978.44;4904101;28;102151;-84
2021/03/24 01:23:34;;;;;;;;;2.00;1.00;;;;;10.79;43.09;98978.44;4893786;28;102768;-83
2021/03/24 01:26:01;;;;;;;;;3.25;3.00;;;;;10.78;42.85;98980.28;4896403;28;104071;-83
2021/03/24 01:28:29;;;;;;;;;2.00;2.00;;;;;10.79;43.18;98976.56;4902219;28;102232;-83
2021/03/24 01:30:57;;;;;;;;;2.50;2.25;;;;;10.77;42.92;98980.47;4903384;28;102385;-84
2021/03/24 01:33:24;;;;;;;;;3.00;3.00;;;;;10.78;43.10;98977.59;4896659;28;102837;-84
2021/03/24 01:35:50;;;;;;;;;3.50;2.00;;;;;10.77;43.00;98970.50;4896563;28;104298;-83
2021/03/24 01:38:17;;;;;;;;;3.25;2.00;;;;;10.77;43.06;98978.59;4903569;28;102548;-84
2021/03/24 01:40:54;;;;;;;;;3.00;3.00;;;;;10.79;42.91;98978.44;4896279;28;102114;-83
2021/03/24 01:43:28;;;;;;;;;2.25;2.00;;;;;10.78;43.08;98974.03;4901220;28;102680;-84
2021/03/24 01:46:23;;;;;;;;;2.50;2.00;;;;;10.77;43.07;98985.88;4901990;28;104113;-84
2021/03/24 01:48:54;;;;;;;;;2.25;2.25;;;;;10.77;43.00;98980.47;4892001;28;102048;-83
2021/03/24 01:51:44;;;;;;;;;2.00;2.00;;;;;10.76;42.75;98978.81;4874512;28;102107;-84
2021/03/24 01:54:12;;;;;;;;;4.00;2.00;;;;;10.74;43.23;98979.84;4874289;28;102262;-84
2021/03/24 01:56:39;;;;;;;;;2.25;2.00;;;;;10.77;42.88;98980.47;4875634;28;104043;-83
2021/03/24 01:59:06;;;;;;;;;2.00;2.00;;;;;10.76;43.30;98981.53;4856601;28;102040;-84
2021/03/24 02:01:33;;;;;;;;;2.00;2.00;;;;;10.76;43.26;98984.22;4890834;28;102150;-84
2021/03/24 02:04:00;;;;;;;;;2.50;2.00;;;;;10.76;43.36;98992.34;4888576;28;102846;-83
2021/03/24 02:06:35;;;;;;;;;3.25;2.00;;;;;10.75;43.68;98983.41;4902449;28;104223;-84
2021/03/24 02:09:36;;;;;;;;;2.00;2.00;;;;;10.76;43.32;98990.50;4873083;28;102115;-84
2021/03/24 02:12:12;;;;;;;;;3.00;3.00;;;;;10.74;43.13;98987.97;4865494;28;102573;-83
2021/03/24 02:14:43;;;;;;;;;3.00;2.00;;;;;10.73;43.16;98986.28;4858180;28;102209;-83
2021/03/24 02:17:10;;;;;;;;;2.00;2.00;;;;;10.76;42.99;98995.06;4854510;28;104269;-84
2021/03/24 02:19:58;;;;;;;;;1.50;1.25;;;;;10.76;43.06;98986.94;4877689;28;102791;-84
2021/03/24 02:22:26;;;;;;;;;2.50;1.50;;;;;10.76;43.04;98989.66;4859951;28;102422;-83
2021/03/24 02:24:58;;;;;;;;;2.50;2.00;;;;;10.74;42.98;98990.66;4872621;28;102747;-84
2021/03/24 02:27:31;;;;;;;;;3.50;2.00;;;;;10.75;43.32;98994.22;4893864;28;104271;-83
2021/03/24 02:30:03;;;;;;;;;1.25;1.00;;;;;10.76;43.45;99000.47;4883386;28;102125;-83
2021/03/24 02:32:30;;;;;;;;;1.00;1.00;;;;;10.75;43.03;98994.22;4871352;28;102334;-84
2021/03/24 02:35:02;;;;;;;;;2.00;2.00;;;;;10.74;43.16;98998.78;4880338;28;102251;-84
2021/03/24 02:37:29;;;;;;;;;1.75;1.00;;;;;10.74;42.99;98998.78;4861272;28;104113;-83
2021/03/24 02:39:56;;;;;;;;;2.50;1.00;;;;;10.74;43.16;98993.38;4860085;28;103490;-83
2021/03/24 02:42:23;;;;;;;;;3.50;2.00;;;;;10.74;42.94;98996.06;4865812;28;102301;-84
2021/03/24 02:44:50;;;;;;;;;2.00;1.50;;;;;10.73;42.88;98999.81;4878007;28;102291;-84
2021/03/24 02:47:17;;;;;;;;;3.00;2.00;;;;;10.76;43.16;99000.47;4859507;28;104532;-83
2021/03/24 02:49:44;;;;;;;;;1.75;1.75;;;;;10.74;43.05;99004.19;4873876;28;102423;-83
2021/03/24 02:52:11;;;;;;;;;1.00;1.00;;;;;10.76;43.09;99014.00;4860332;28;102161;-83
2021/03/24 02:54:39;;;;;;;;;2.00;1.75;;;;;10.74;42.88;99008.75;4863243;28;102109;-84
2021/03/24 02:57:06;;;;;;;;;1.00;1.00;;;;;10.73;43.18;98998.97;4879841;28;104332;-83
2021/03/24 02:59:32;;;;;;;;;2.50;2.00;;;;;10.74;43.10;99015.00;4898525;28;102006;-83
2021/03/24 03:02:07;;;;;;;;;2.75;2.00;;;;;10.74;43.13;99009.59;4910554;28;102038;-84
2021/03/24 03:04:38;;;;;;;;;3.00;2.00;;;;;10.73;43.35;99001.66;4894521;28;102513;-84
2021/03/24 03:07:08;;;;;;;;;1.25;1.00;;;;;10.73;42.99;99001.66;4879334;28;104276;-84
2021/03/24 03:09:51;;;;;;;;;1.50;1.00;;;;;10.73;43.34;98998.97;4883557;28;102121;-84
2021/03/24 03:12:32;;;;;;;;;2.00;2.00;;;;;10.72;42.90;99000.81;4875242;28;102840;-83
2021/03/24 03:15:37;;;;;;;;;2.50;2.00;;;;;10.73;43.30;99004.38;4873189;28;102371;-84
2021/03/24 03:18:18;;;;;;;;;3.50;1.75;;;;;10.72;43.06;99006.22;4817943;29;104099;-84
2021/03/24 03:20:46;;;;;;;;;2.75;1.50;;;;;10.72;43.01;98999.97;4877333;28;103837;-84
2021/03/24 03:23:18;;;;;;;;;1.75;1.75;;;;;10.70;43.12;99008.31;4863381;28;102118;-84
2021/03/24 03:25:55;;;;;;;;;2.25;1.00;;;;;10.70;43.25;99002.91;4876999;28;102724;-84
2021/03/24 03:28:22;;;;;;;;;2.00;1.50;;;;;10.70;43.07;99002.06;4879315;28;104062;-83
2021/03/24 03:30:49;;;;;;;;;3.00;1.50;;;;;10.70;43.05;99002.91;4866133;28;102165;-83
2021/03/24 03:33:19;;;;;;;;;3.00;2.00;;;;;10.68;43.13;98999.53;4878394;28;102561;-83
2021/03/24 03:35:45;;;;;;;;;3.00;2.00;;;;;10.71;43.24;99007.28;4862795;28;102276;-83
2021/03/24 03:38:16;;;;;;;;;2.75;1.00;;;;;10.71;43.49;99001.03;4901808;28;104207;-84
2021/03/24 03:40:44;;;;;;;;;2.00;1.25;;;;;10.71;42.98;99004.59;4881747;28;102598;-83
2021/03/24 03:43:13;;;;;;;;;3.50;2.00;;;;;10.71;43.25;99001.88;4881267;28;102194;-84
2021/03/24 03:45:41;;;;;;;;;1.50;1.00;;;;;10.72;43.37;99002.69;4875795;28;102594;-83
2021/03/24 03:48:09;;;;;;;;;2.50;2.00;;;;;10.71;43.39;98999.19;4872580;28;104360;-83
2021/03/24 03:50:36;;;;;;;;;0.75;0.50;;;;;10.72;43.40;98999.97;4877217;28;102707;-84
2021/03/24 03:53:21;;;;;;;;;2.00;2.00;;;;;10.72;43.07;98999.97;4851360;28;102555;-83
2021/03/24 03:56:04;;;;;;;;;2.00;2.00;;;;;10.71;43.16;98993.78;4896477;28;102382;-83
2021/03/24 03:58:56;;;;;;;;;1.00;1.00;;;;;10.72;43.39;98990.00;4876538;28;104058;-83
2021/03/24 04:01:50;;;;;;;;;1.00;1.00;;;;;10.72;43.13;98997.28;4885310;28;102582;-83
2021/03/24 04:04:45;;;;;;;;;2.75;2.75;;;;;10.72;43.04;98997.28;4882744;28;102087;-83
2021/03/24 04:07:23;;;;;;;;;2.00;2.00;;;;;10.71;43.23;98991.06;4886473;28;102072;-84
2021/03/24 04:09:50;;;;;;;;;2.75;2.00;;;;;10.74;43.19;98993.38;4858434;28;105511;-83
2021/03/24 04:12:17;;;;;;;;;2.00;1.75;;;;;10.77;43.02;98996.69;4874588;28;102090;-83
2021/03/24 04:14:44;;;;;;;;;2.50;1.00;;;;;10.78;43.13;98993.81;4874708;28;102114;-83
2021/03/24 04:17:15;;;;;;;;;2.00;2.00;;;;;10.82;43.08;98987.00;4908263;28;102204;-84
2021/03/24 04:19:46;;;;;;;;;1.25;1.00;;;;;10.84;42.95;98992.22;4879243;28;104217;-83
2021/03/24 04:22:15;;;;;;;;;1.00;1.00;;;;;10.88;43.23;98993.50;4876554;28;102352;-84
2021/03/24 04:24:46;;;;;;;;;2.50;1.50;;;;;10.90;43.02;99003.09;4861202;28;102997;-84
2021/03/24 04:27:14;;;;;;;;;1.00;1.00;;;;;10.93;43.02;99001.88;4862922;28;102663;-83
2021/03/24 04:29:46;;;;;;;;;1.75;0.75;;;;;10.96;43.13;98998.78;4854365;28;104427;-83
2021/03/24 04:32:12;;;;;;;;;1.75;1.00;;;;;10.96;43.21;98994.19;4859580;28;102137;-83
2021/03/24 04:34:40;;;;;;;;;1.25;1.25;;;;;11.01;43.47;98999.03;4883675;28;102093;-83
2021/03/24 04:37:40;;;;;;;;;2.00;1.00;;;;;11.03;42.70;98999.69;4858847;28;102900;-83
2021/03/24 04:40:12;;;;;;;;;1.25;1.25;;;;;11.05;42.75;99000.31;4827202;28;104101;-83
2021/03/24 04:42:51;;;;;;;;;1.25;1.25;;;;;11.05;43.26;98997.63;4874203;28;105192;-83
2021/03/24 04:45:53;;;;;;;;;1.75;1.75;;;;;11.07;43.06;98998.28;4854133;28;102714;-83
2021/03/24 04:48:40;;;;;;;;;2.00;2.00;;;;;11.09;42.81;99004.31;4807779;28;103090;-84
2021/03/24 04:51:12;;;;;;;;;3.00;2.00;;;;;11.10;42.63;99003.28;4866247;28;104466;-83
2021/03/24 04:53:41;;;;;;;;;1.00;1.00;;;;;11.10;42.89;99000.56;4871629;28;102095;-84
2021/03/24 04:56:10;;;;;;;;;3.25;1.50;;;;;11.11;42.75;99010.38;4871785;28;102042;-84
2021/03/24 04:58:39;;;;;;;;;1.00;1.00;;;;;11.11;42.90;99005.81;4877246;28;102867;-83
2021/03/24 05:01:21;;;;;;;;;1.50;1.00;;;;;11.11;42.99;99010.38;4882848;28;103778;-83
2021/03/24 05:03:50;;;;;;;;;2.00;2.00;;;;;11.12;42.88;99009.34;4854676;28;102118;-83
2021/03/24 05:06:30;;;;;;;;;2.25;1.50;;;;;11.11;43.06;99010.38;4863593;28;102139;-83
2021/03/24 05:08:56;;;;;;;;;1.50;1.00;;;;;11.11;42.85;99018.50;4871772;28;102644;-84
2021/03/24 05:11:24;;;;;;;;;1.00;1.00;;;;;11.13;42.77;99024.53;4891958;28;104067;-83
2021/03/24 05:13:57;;;;;;;;;1.00;1.00;;;;;11.13;42.83;99024.53;4879697;28;102075;-83
2021/03/24 05:16:30;;;;;;;;;1.00;1.00;;;;;11.13;42.60;99024.53;4879215;28;106677;-83
2021/03/24 05:18:57;;;;;;;;;1.75;1.00;;;;;11.13;42.90;99024.53;4890132;28;102527;-84
2021/03/24 05:21:32;;;;;;;;;2.00;1.00;;;;;11.13;42.79;99035.34;4860589;28;103929;-83
2021/03/24 05:23:59;;;;;;;;;1.50;1.00;;;;;11.13;42.86;99035.34;4891742;28;101986;-83
2021/03/24 05:26:40;;;;;;;;;1.00;1.00;;;;;11.12;42.87;99034.53;4858074;28;102794;-83
2021/03/24 05:29:11;;;;;;;;;2.00;2.00;;;;;11.13;42.91;99035.34;4875038;28;102124;-83
2021/03/24 05:31:43;;;;;;;;;1.75;1.00;;;;;11.13;42.80;99041.63;4860934;28;104027;-83
2021/03/24 05:34:29;;;;;;;;;0.75;0.75;;;;;11.13;42.79;99046.19;4853619;28;102065;-83
2021/03/24 05:36:56;;;;;;;;;1.00;1.00;;;;;11.12;42.90;99044.53;4859286;28;102067;-83
2021/03/24 05:39:33;;;;;;;;;1.00;1.00;;;;;11.13;42.91;99051.59;4902340;28;102154;-83
2021/03/24 05:42:02;;;;;;;;;1.00;1.00;;;;;11.12;43.13;99049.94;4874462;28;103763;-83
2021/03/24 05:45:02;;;;;;;;;2.50;1.50;;;;;11.13;42.68;99049.72;4872707;28;103113;-83
2021/03/24 05:47:47;;;;;;;;;2.25;2.00;;;;;11.12;42.82;99044.53;4884443;28;102280;-83
2021/03/24 05:50:41;;;;;;;;;1.25;1.25;;;;;11.12;42.96;99055.34;4872698;28;102663;-83
2021/03/24 05:53:27;;;;;;;;;3.00;1.00;;;;;11.13;42.99;99065.13;4886678;28;104098;-83
2021/03/24 05:56:22;;;;;;;;;2.75;1.50;;;;;11.11;43.05;99051.81;4873238;28;102016;-83
2021/03/24 05:59:13;;;;;;;;;2.50;1.75;;;;;11.11;42.69;99054.53;4858391;28;102181;-83
2021/03/24 06:02:02;;;;;;;;;2.00;2.00;;;;;11.10;42.90;99057.41;4879716;28;102337;-83
2021/03/24 06:04:56;;;;;;;;;2.75;2.00;;;;;11.09;42.69;99059.28;4849488;28;103881;-83
2021/03/24 06:07:54;;;;;;;;;1.00;1.00;;;;;11.10;42.82;99057.41;4857865;28;102050;-83
2021/03/24 06:10:32;;;;;;;;;2.25;2.00;;;;;11.10;42.62;99065.53;4874349;28;102043;-83
2021/03/24 06:13:26;;;;;;;;;1.75;1.00;;;;;11.09;43.07;99053.03;4883494;28;102748;-83
2021/03/24 06:16:06;;;;;;;;;2.00;2.00;;;;;11.08;42.82;99056.75;4880972;28;104125;-83
2021/03/24 06:19:11;;;;;;;;;1.00;1.00;;;;;11.08;42.89;99056.75;4872840;28;102032;-83
2021/03/24 06:22:14;;;;;;;;;3.50;2.00;;;;;11.08;42.90;99054.88;4872615;28;102081;-83
2021/03/24 06:25:02;;;;;;;;;2.00;1.75;;;;;11.07;42.97;99058.66;4886228;28;102450;-83
2021/03/24 06:27:45;;;;;;;;;0.25;0.25;;;;;11.07;42.43;99064.06;4882518;28;104104;-83
2021/03/24 06:30:18;;;;;;;;;1.00;1.00;;;;;11.07;42.94;99065.91;4877465;28;102299;-83
2021/03/24 06:33:24;;;;;;;;;2.00;1.50;;;;;11.07;42.82;99063.22;4875758;28;102116;-83
2021/03/24 06:36:29;;;;;;;;;1.25;1.25;;;;;11.07;42.93;99060.50;4868976;28;102254;-83
2021/03/24 06:39:12;;;;;;;;;2.75;1.75;;;;;11.03;42.89;99062.75;4879859;28;104056;-83
2021/03/24 06:41:44;;;;;;;;;1.00;1.00;;;;;11.05;43.00;99071.50;4881927;28;102157;-83
2021/03/24 06:44:20;;;;;;;;;1.75;1.50;;;;;11.05;43.06;99071.50;4863808;28;102213;-83
2021/03/24 06:46:48;;;;;;;;;1.00;1.00;;;;;11.05;42.84;99076.09;4853861;28;102200;-83
2021/03/24 06:49:21;;;;;;;;;1.75;1.00;;;;;11.05;42.73;99076.09;4855790;28;104227;-83
2021/03/24 06:52:16;;;;;;;;;2.50;1.00;;;;;11.06;43.04;99077.78;4854156;28;102062;-83
2021/03/24 06:55:11;;;;;;;;;2.00;1.00;;;;;11.05;42.86;99070.69;4854477;28;102311;-83
2021/03/24 06:58:00;;;;;;;;;2.00;1.00;;;;;11.05;42.83;99076.09;4852653;28;104005;-83
2021/03/24 07:00:58;;;;;;;;;1.25;1.25;;;;;11.05;43.07;99081.50;4855894;28;104207;-83
2021/03/24 07:03:44;;;;;;;;;1.75;1.25;;;;;11.05;43.04;99086.91;4838054;28;102406;-83
2021/03/24 07:06:27;;;;;;;;;1.00;1.00;;;;;11.04;43.09;99088.78;4848396;28;102871;-83
2021/03/24 07:09:25;;;;;;;;;1.75;1.00;;;;;11.03;42.99;99092.50;4851588;28;102082;-83
2021/03/24 07:12:09;;;;;;;;;2.00;1.00;;;;;11.04;43.06;99087.94;4841612;28;103649;-83
2021/03/24 07:14:53;;;;;;;;;1.75;1.00;;;;;11.02;42.91;99088.16;4848653;28;102854;-83
2021/03/24 07:17:34;;;;;;;;;1.50;1.00;;;;;11.03;42.97;99094.41;4812238;28;103233;-83
2021/03/24 07:20:18;;;;;;;;;2.75;2.00;;;;;11.03;42.84;99097.09;4827480;28;102840;-83
2021/03/24 07:23:22;;;;;;;;;2.00;1.75;;;;;11.03;43.17;99099.81;4838097;28;104387;-83
2021/03/24 07:26:08;;;;;;;;;2.75;1.75;;;;;11.03;43.14;99100.63;4788709;28;102420;-83
2021/03/24 07:28:43;;;;;;;;;1.00;1.00;;;;;11.02;42.98;99104.38;4822755;28;102312;-83
2021/03/24 07:31:22;;;;;;;;;0.25;0.00;;;;;11.03;43.04;99103.34;4843260;28;102318;-83
2021/03/24 07:34:25;;;;;;;;;1.00;1.00;;;;;11.03;43.08;99102.53;4818231;28;104157;-84
2021/03/24 07:37:20;;;;;;;;;2.50;1.25;;;;;11.03;43.01;99116.06;4804212;28;102386;-83
2021/03/24 07:40:02;;;;;;;;;1.00;1.00;;;;;11.03;42.89;99105.22;4743442;28;102628;-84
2021/03/24 07:42:45;;;;;;;;;3.00;1.00;;;;;11.03;42.86;99107.94;4833518;28;102298;-84
2021/03/24 07:45:30;;;;;;;;;2.00;1.00;;;;;11.03;42.98;99124.16;4785992;28;104333;-84
2021/03/24 07:48:31;;;;;;;;;1.00;1.00;;;;;11.03;43.10;99121.47;4818356;28;103698;-83
2021/03/24 07:51:16;;;;;;;;;1.00;1.00;;;;;11.02;42.84;99119.78;4799476;28;102172;-83
2021/03/24 07:53:45;;;;;;;;;1.50;1.00;;;;;11.03;43.01;99126.88;4807671;28;102727;-83
2021/03/24 07:56:30;;;;;;;;;2.00;2.00;;;;;11.03;42.94;99126.88;4702352;28;104041;-83
2021/03/24 07:59:24;;;;;;;;;2.00;2.00;;;;;11.03;42.86;99129.59;4842421;28;102273;-84
2021/03/24 08:02:14;;;;;;;;;1.25;1.00;;;;;11.03;43.20;99126.88;4835586;28;103493;-84
2021/03/24 08:04:56;;;;;;;;;1.25;1.25;;;;;11.03;42.77;99132.28;4727201;28;103320;-84
2021/03/24 08:07:28;;;;;;;;;2.00;1.75;;;;;11.02;43.38;99134.16;4754412;28;108834;-83
2021/03/24 08:10:07;;;;;;;;;1.75;1.00;;;;;11.03;43.07;99137.69;4793488;28;102707;-83
2021/03/24 08:13:11;;;;;;;;;1.00;1.00;;;;;11.02;43.12;99133.31;4739001;28;102457;-83
2021/03/24 08:15:51;;;;;;;;;1.00;1.00;;;;;11.02;43.06;99127.91;4733055;28;102709;-84
2021/03/24 08:18:39;;;;;;;;;1.00;1.00;;;;;11.02;42.84;99136.00;4823733;28;104191;-83
2021/03/24 08:21:15;;;;;;;;;2.00;1.00;;;;;11.03;42.94;99132.28;4806233;28;102485;-84
2021/03/24 08:23:49;;;;;;;;;2.75;2.00;;;;;11.02;42.75;99131.44;4641813;28;102486;-84
2021/03/24 08:26:38;;;;;;;;;1.25;1.00;;;;;11.03;42.92;99132.28;4690806;28;102621;-84
2021/03/24 08:29:11;;;;;;;;;1.25;1.25;;;;;11.03;43.22;99132.28;4623368;28;109026;-84
2021/03/24 08:31:56;;;;;;;;;2.00;1.75;;;;;11.04;42.95;99123.13;4840359;28;102656;-84
2021/03/24 08:34:32;;;;;;;;;1.00;1.00;;;;;11.03;42.85;99124.16;4815910;28;102285;-84
2021/03/24 08:37:07;;;;;;;;;2.00;1.00;;;;;11.02;42.98;99125.19;4813710;28;102293;-84
2021/03/24 08:39:56;;;;;;;;;0.50;0.00;;;;;11.03;42.88;99122.28;4710502;28;104593;-84
2021/03/24 08:42:41;;;;;;;;;1.00;1.00;;;;;11.03;42.86;99114.16;4760135;28;102516;-84
2021/03/24 08:45:31;;;;;;;;;1.00;1.00;;;;;11.03;42.89;99119.56;4850253;28;102163;-84
2021/03/24 08:47:59;;;;;;;;;0.00;0.00;;;;;11.04;42.93;99115.00;4790419;28;103114;-83
2021/03/24 08:50:33;;;;;;;;;1.50;1.00;;;;;11.05;42.94;99117.53;4757767;28;104080;-84
2021/03/24 08:53:06;;;;;;;;;2.75;2.00;;;;;11.04;43.00;99112.28;4827244;28;103761;-84
2021/03/24 08:55:50;;;;;;;;;3.00;2.00;;;;;11.04;42.85;99121.25;4824515;28;103536;-84
2021/03/24 08:58:32;;;;;;;;;1.00;1.00;;;;;11.04;43.13;99112.28;4671500;28;103113;-84
2021/03/24 09:01:35;;;;;;;;;3.00;1.00;;;;;11.04;43.04;99107.72;4828284;28;104103;-84
2021/03/24 09:04:24;;;;;;;;;1.00;0.25;;;;;11.05;43.15;99116.69;4870537;28;102289;-83
2021/03/24 09:06:55;;;;;;;;;1.00;1.00;;;;;11.05;42.71;99108.56;4720039;28;102232;-84
2021/03/24 09:09:32;;;;;;;;;2.25;2.00;;;;;11.05;42.85;99113.97;4788056;28;103156;-83
2021/03/24 09:12:18;;;;;;;;;1.75;1.75;;;;;11.05;42.83;99119.38;4770800;28;108846;-84
2021/03/24 09:15:08;;;;;;;;;1.00;1.00;;;;;11.05;43.21;99119.38;4857089;28;102706;-84
2021/03/24 09:17:44;;;;;;;;;2.00;2.00;;;;;11.06;42.96;99115.66;4832735;28;104227;-84
2021/03/24 09:20:18;;;;;;;;;2.00;2.00;;;;;11.03;43.03;99118.75;4856354;28;102453;-84
2021/03/24 09:22:57;;;;;;;;;1.25;1.25;;;;;11.06;42.96;99118.38;4853092;28;104088;-84
2021/03/24 09:25:42;;;;;;;;;2.00;1.00;;;;;11.06;43.00;99115.66;4783273;28;103481;-84
2021/03/24 09:28:46;;;;;;;;;1.00;1.00;;;;;11.06;42.81;99102.13;4740408;28;102145;-84
2021/03/24 09:31:25;;;;;;;;;2.00;2.00;;;;;11.05;42.97;99103.16;4825014;28;102458;-83
2021/03/24 09:34:09;;;;;;;;;1.25;1.25;;;;;11.06;42.83;99099.41;4856512;28;109209;-84
2021/03/24 09:36:51;;;;;;;;;1.75;1.75;;;;;11.05;43.02;99089.63;4853410;28;102241;-84
2021/03/24 09:39:19;;;;;;;;;1.00;1.00;;;;;11.07;42.53;99098.41;4824309;28;102143;-84
2021/03/24 09:41:49;;;;;;;;;2.00;1.00;;;;;11.06;43.01;99094.00;4847313;28;107686;-84
2021/03/24 09:44:24;;;;;;;;;2.00;2.00;;;;;11.06;42.93;99100.25;4795059;28;105401;-83
2021/03/24 09:46:52;;;;;;;;;2.00;1.75;;;;;11.06;42.95;99094.84;4840040;28;102241;-83
2021/03/24 09:49:19;;;;;;;;;2.50;2.00;;;;;11.07;42.91;99095.69;4679603;28;102342;-84
2021/03/24 09:52:06;;;;;;;;;2.00;2.00;;;;;11.07;43.08;99095.69;4751395;28;105254;-84
2021/03/24 09:54:33;;;;;;;;;1.75;1.75;;;;;11.07;42.79;99090.28;4811128;28;104472;-84
2021/03/24 09:57:05;;;;;;;;;1.00;1.00;;;;;11.07;43.11;99090.28;4744701;28;102556;-84
2021/03/24 09:59:39;;;;;;;;;1.00;1.00;;;;;11.06;43.08;99083.19;4855314;28;102349;-84
2021/03/24 10:02:21;;;;;;;;;0.50;0.50;;;;;11.07;42.81;99085.72;4855623;28;102204;-83
2021/03/24 10:04:51;;;;;;;;;2.00;2.00;;;;;11.07;43.11;99079.44;4690792;28;104104;-84
2021/03/24 10:07:40;;;;;;;;;3.00;1.75;;;;;11.08;43.02;99092.78;4672581;28;102595;-84
2021/03/24 10:10:15;;;;;;;;;2.00;2.00;;;;;11.09;42.80;99086.34;4532007;29;102879;-84
2021/03/24 10:13:02;;;;;;;;;3.00;1.25;;;;;11.08;42.63;99086.50;4747216;29;102781;-84
2021/03/24 10:15:48;;;;;;;;;2.00;2.00;;;;;11.08;43.05;99081.94;4769114;29;104106;-84
2021/03/24 10:18:24;;;;;;;;;1.00;0.75;;;;;11.09;43.00;99083.63;4649956;29;102231;-84
2021/03/24 10:21:09;;;;;;;;;2.50;2.00;;;;;11.09;42.71;99088.19;4808797;28;102723;-84
2021/03/24 10:23:48;;;;;;;;;1.00;1.00;;;;;11.08;42.34;99083.81;4796451;28;102260;-84
2021/03/24 10:26:31;;;;;;;;;1.00;1.00;;;;;11.08;43.06;99083.81;4836916;28;104047;-84
2021/03/24 10:29:06;;;;;;;;;2.00;2.00;;;;;11.09;42.95;99088.19;4715466;28;102384;-84
2021/03/24 10:31:41;;;;;;;;;1.00;1.00;;;;;11.09;43.08;99080.09;4848867;28;102835;-84
2021/03/24 10:34:12;;;;;;;;;3.00;2.00;;;;;11.09;42.99;99077.38;4843997;28;102872;-83
2021/03/24 10:36:57;;;;;;;;;1.00;1.00;;;;;11.09;42.87;99085.50;4840697;28;104139;-83
2021/03/24 10:39:43;;;;;;;;;3.00;1.25;;;;;11.09;42.81;99086.34;4751742;28;102503;-84
2021/03/24 10:42:24;;;;;;;;;2.00;2.00;;;;;11.09;43.07;99077.38;4802691;28;102675;-84
2021/03/24 10:45:16;;;;;;;;;2.25;1.00;;;;;11.10;42.91;99079.06;4812848;28;102474;-84
2021/03/24 10:47:52;;;;;;;;;1.25;1.00;;;;;11.10;43.01;99079.06;4710794;28;108927;-84
2021/03/24 10:50:42;;;;;;;;;2.25;1.25;;;;;11.09;43.11;99078.22;4718784;28;102484;-84
2021/03/24 10:53:31;;;;;;;;;1.50;1.00;;;;;11.10;42.83;99068.22;4841429;28;102658;-83
2021/03/24 10:56:04;;;;;;;;;1.00;1.00;;;;;11.12;42.76;99074.31;4823600;28;102689;-84
2021/03/24 10:58:56;;;;;;;;;3.25;2.00;;;;;11.11;43.01;99070.75;4818896;28;104428;-83
2021/03/24 11:01:33;;;;;;;;;2.00;1.75;;;;;11.12;42.85;99069.69;4739843;28;103036;-84
2021/03/24 11:04:05;;;;;;;;;1.50;1.00;;;;;11.13;42.95;99067.84;4761066;28;103223;-84
2021/03/24 11:06:37;;;;;;;;;2.00;1.00;;;;;11.12;42.83;99060.78;4858161;28;102784;-84
2021/03/24 11:09:14;;;;;;;;;1.00;1.00;;;;;11.13;43.09;99067.84;4839165;28;104024;-84
2021/03/24 11:11:50;;;;;;;;;2.00;1.00;;;;;11.15;42.87;99058.50;4718143;28;102318;-84
2021/03/24 11:14:25;;;;;;;;;2.50;2.00;;;;;11.15;42.84;99050.38;4777914;28;105269;-84
2021/03/24 11:16:59;;;;;;;;;2.00;2.00;;;;;11.18;43.04;99057.28;4799948;28;102627;-83
2021/03/24 11:19:43;;;;;;;;;1.50;1.50;;;;;11.19;43.04;99053.53;4816126;28;104369;-84
2021/03/24 11:22:30;;;;;;;;;2.00;2.00;;;;;11.19;42.96;99050.84;4792505;28;104409;-83
2021/03/24 11:25:18;;;;;;;;;2.75;2.75;;;;;11.21;43.02;99050.66;4794056;28;102559;-84
2021/03/24 11:27:48;;;;;;;;;2.00;2.00;;;;;11.22;42.89;99050.44;4813429;28;108173;-84
2021/03/24 11:30:36;;;;;;;;;2.50;1.50;;;;;11.22;42.66;99042.31;4838102;28;104075;-83
2021/03/24 11:33:37;;;;;;;;;2.00;1.00;;;;;11.23;42.95;99049.41;4835338;28;102647;-83
2021/03/24 11:36:10;;;;;;;;;0.25;0.00;;;;;11.24;42.90;99045.69;4834610;28;102188;-84
2021/03/24 11:38:45;;;;;;;;;3.25;2.00;;;;;11.25;42.89;99044.66;4828413;28;102558;-84
2021/03/24 11:41:22;;;;;;;;;2.00;2.00;;;;;11.24;42.80;99039.44;4857635;28;104037;-83
2021/03/24 11:44:06;;;;;;;;;1.50;1.00;;;;;11.25;43.07;99043.81;4774923;28;102758;-83
2021/03/24 11:46:35;;;;;;;;;1.00;1.00;;;;;11.28;42.81;99044.25;4830179;28;103415;-83
2021/03/24 11:49:08;;;;;;;;;1.50;1.00;;;;;11.27;42.88;99039.88;4690285;28;102763;-84
2021/03/24 11:51:57;;;;;;;;;2.00;1.50;;;;;11.28;43.01;99038.84;4703290;28;104212;-83
2021/03/24 11:54:38;;;;;;;;;2.00;1.25;;;;;11.29;42.98;99035.09;4823578;28;102256;-84
2021/03/24 11:57:20;;;;;;;;;2.00;2.00;;;;;11.28;42.93;99036.13;4715202;28;108307;-84
2021/03/24 12:00:14;;;;;;;;;2.50;1.25;;;;;11.30;42.76;99030.53;4840645;28;102807;-83
2021/03/24 12:02:55;;;;;;;;;1.00;1.00;;;;;11.31;42.95;99033.03;4825261;28;106222;-83
2021/03/24 12:05:43;;;;;;;;;2.00;2.00;;;;;11.31;42.93;99033.03;4748634;28;102454;-83
2021/03/24 12:08:22;;;;;;;;;2.25;2.00;;;;;11.31;42.94;99034.91;4731823;28;102366;-84
2021/03/24 12:11:14;;;;;;;;;2.00;1.75;;;;;11.32;42.79;99034.72;4802425;28;102481;-83